createdAt,value
2017-12-31T00:00:14.642Z,26.33
2017-12-31T00:02:40.932Z,19.53
2017-12-31T00:05:07.893Z,23.53
2017-12-31T00:07:34.905Z,21.53
2017-12-31T00:10:01.166Z,19.53
2017-12-31T00:12:28.245Z,24.77
2017-12-31T00:14:54.467Z,23.63
2017-12-31T00:17:20.691Z,26.07
2017-12-31T00:19:46.961Z,26.13
2017-12-31T00:22:13.197Z,16.60
2017-12-31T00:24:39.653Z,34.60
2017-12-31T00:27:05.872Z,17.37
2017-12-31T00:29:32.106Z,17.03
2017-12-31T00:31:58.311Z,23.53
2017-12-31T00:34:24.491Z,13.00
2017-12-31T00:36:50.945Z,31.90
2017-12-31T00:39:17.163Z,17.23
2017-12-31T00:41:43.380Z,16.43
2017-12-31T00:44:10.384Z,17.37
2017-12-31T00:46:36.610Z,14.10
2017-12-31T00:49:02.853Z,22.67
2017-12-31T00:51:29.083Z,25.80
2017-12-31T00:53:55.359Z,20.10
2017-12-31T00:56:21.546Z,15.57
2017-12-31T00:58:48.155Z,25.27
2017-12-31T01:01:14.371Z,15.63
2017-12-31T01:03:40.570Z,22.67
2017-12-31T01:06:06.824Z,22.97
2017-12-31T01:08:32.999Z,21.60
2017-12-31T01:10:59.942Z,15.30
2017-12-31T01:13:26.124Z,23.60
2017-12-31T01:15:52.333Z,20.90
2017-12-31T01:18:18.514Z,17.23
2017-12-31T01:20:44.718Z,29.90
2017-12-31T01:23:10.938Z,30.13
2017-12-31T01:25:37.128Z,23.03
2017-12-31T01:28:04.051Z,17.23
2017-12-31T01:30:30.286Z,26.40
2017-12-31T01:32:56.475Z,19.43
2017-12-31T01:35:22.657Z,17.93
2017-12-31T01:37:49.614Z,20.23
2017-12-31T01:40:16.678Z,12.70
2017-12-31T01:42:42.855Z,21.27
2017-12-31T01:45:09.035Z,17.53
2017-12-31T01:47:35.260Z,18.87
2017-12-31T01:50:01.438Z,17.37
2017-12-31T01:52:27.623Z,15.90
2017-12-31T01:54:53.855Z,12.63
2017-12-31T01:57:20.031Z,12.30
2017-12-31T01:59:46.240Z,13.90
2017-12-31T02:02:12.419Z,10.27
2017-12-31T02:04:39.396Z,19.80
2017-12-31T02:07:05.576Z,13.83
2017-12-31T02:09:33.331Z,19.50
2017-12-31T02:11:59.515Z,20.17
2017-12-31T02:14:26.076Z,17.13
2017-12-31T02:16:53.740Z,21.67
2017-12-31T02:19:20.885Z,19.40
2017-12-31T02:21:47.837Z,25.30
2017-12-31T02:24:15.089Z,27.67
2017-12-31T02:26:41.283Z,22.17
2017-12-31T02:29:07.512Z,10.97
2017-12-31T02:31:33.872Z,17.70
2017-12-31T02:34:00.062Z,32.30
2017-12-31T02:36:26.239Z,19.97
2017-12-31T02:38:52.664Z,15.03
2017-12-31T02:41:18.855Z,12.73
2017-12-31T02:43:45.922Z,15.10
2017-12-31T02:46:12.155Z,21.57
2017-12-31T02:48:38.338Z,14.43
2017-12-31T02:51:05.267Z,21.77
2017-12-31T02:53:31.518Z,18.27
2017-12-31T02:55:58.444Z,11.80
2017-12-31T02:58:24.622Z,15.40
2017-12-31T03:00:50.887Z,19.23
2017-12-31T03:03:17.087Z,10.57
2017-12-31T03:05:43.286Z,19.87
2017-12-31T03:08:10.203Z,28.67
2017-12-31T03:10:36.408Z,18.70
2017-12-31T03:13:02.587Z,22.50
2017-12-31T03:15:29.540Z,21.57
2017-12-31T03:17:55.730Z,18.37
2017-12-31T03:20:22.247Z,18.47
2017-12-31T03:22:48.426Z,28.17
2017-12-31T03:25:15.347Z,19.07
2017-12-31T03:27:41.555Z,20.97
2017-12-31T03:30:07.730Z,19.30
2017-12-31T03:32:34.898Z,18.93
2017-12-31T03:35:01.074Z,19.67
2017-12-31T03:37:28.032Z,18.10
2017-12-31T03:39:54.242Z,12.33
2017-12-31T03:42:20.423Z,27.67
2017-12-31T03:44:46.623Z,35.63
2017-12-31T03:47:13.547Z,32.00
2017-12-31T03:49:39.762Z,24.23
2017-12-31T03:52:05.967Z,16.90
2017-12-31T03:54:32.179Z,32.17
2017-12-31T03:56:58.351Z,20.50
2017-12-31T03:59:24.527Z,28.80
2017-12-31T04:01:51.483Z,21.23
2017-12-31T04:04:17.688Z,18.67
2017-12-31T04:06:44.611Z,30.67
2017-12-31T04:09:10.815Z,25.33
2017-12-31T04:11:37.039Z,29.10
2017-12-31T04:14:03.216Z,27.17
2017-12-31T04:16:30.139Z,18.20
2017-12-31T04:18:56.347Z,25.13
2017-12-31T04:21:22.526Z,30.10
2017-12-31T04:23:48.762Z,17.50
2017-12-31T04:26:15.679Z,39.37
2017-12-31T04:28:41.864Z,26.83
2017-12-31T04:31:08.066Z,30.67
2017-12-31T04:33:34.987Z,26.50
2017-12-31T04:36:01.167Z,17.70
2017-12-31T04:38:27.522Z,26.40
2017-12-31T04:40:53.707Z,24.17
2017-12-31T04:43:19.947Z,25.07
2017-12-31T04:45:46.408Z,29.83
2017-12-31T04:48:12.587Z,29.53
2017-12-31T04:50:39.515Z,27.63
2017-12-31T04:53:06.463Z,27.30
2017-12-31T04:55:32.643Z,32.37
2017-12-31T04:57:58.851Z,26.60
2017-12-31T05:00:25.048Z,25.57
2017-12-31T05:02:51.255Z,26.43
2017-12-31T05:05:17.462Z,27.87
2017-12-31T05:07:43.803Z,30.77
2017-12-31T05:10:09.983Z,31.50
2017-12-31T05:12:36.902Z,21.97
2017-12-31T05:15:03.107Z,33.07
2017-12-31T05:17:29.289Z,21.77
2017-12-31T05:20:03.323Z,32.10
2017-12-31T05:22:29.508Z,21.83
2017-12-31T05:24:55.847Z,24.10
2017-12-31T05:27:22.766Z,27.13
2017-12-31T05:29:48.994Z,32.00
2017-12-31T05:32:15.176Z,22.57
2017-12-31T05:34:41.362Z,24.73
2017-12-31T05:37:07.568Z,20.37
2017-12-31T05:39:33.747Z,25.10
2017-12-31T05:42:00.839Z,22.37
2017-12-31T05:44:27.023Z,18.30
2017-12-31T05:46:53.999Z,18.43
2017-12-31T05:49:20.198Z,18.43
2017-12-31T05:51:47.527Z,15.00
2017-12-31T05:54:13.939Z,21.40
2017-12-31T05:56:40.120Z,14.60
2017-12-31T05:59:06.299Z,20.17
2017-12-31T06:01:32.503Z,15.00
2017-12-31T06:03:58.706Z,18.20
2017-12-31T06:06:24.940Z,21.13
2017-12-31T06:08:51.115Z,9.87
2017-12-31T06:11:17.295Z,11.63
2017-12-31T06:13:43.664Z,12.53
2017-12-31T06:16:09.847Z,20.97
2017-12-31T06:18:36.767Z,14.23
2017-12-31T06:21:03.370Z,11.30
2017-12-31T06:23:29.547Z,20.03
2017-12-31T06:25:56.016Z,18.80
2017-12-31T06:28:22.279Z,21.90
2017-12-31T06:30:49.247Z,18.60
2017-12-31T06:33:15.450Z,18.73
2017-12-31T06:35:41.628Z,13.60
2017-12-31T06:38:08.004Z,8.60
2017-12-31T06:40:34.182Z,144.67
2017-12-31T06:43:01.102Z,245.23
2017-12-31T06:45:27.506Z,76.13
2017-12-31T06:47:53.686Z,15.47
2017-12-31T06:50:20.602Z,126.83
2017-12-31T06:52:47.561Z,35.07
2017-12-31T06:55:13.742Z,76.47
2017-12-31T06:57:40.092Z,22.80
2017-12-31T07:00:06.267Z,22.63
2017-12-31T07:02:32.510Z,14.50
2017-12-31T07:04:58.715Z,12.00
2017-12-31T07:07:25.684Z,11.07
2017-12-31T07:09:52.610Z,9.63
2017-12-31T07:12:19.567Z,10.23
2017-12-31T07:14:46.486Z,16.07
2017-12-31T07:17:12.999Z,10.17
2017-12-31T07:19:39.213Z,11.43
2017-12-31T07:22:05.420Z,41.43
2017-12-31T07:24:31.631Z,13.70
2017-12-31T07:26:58.739Z,21.60
2017-12-31T07:29:25.719Z,14.07
2017-12-31T07:31:52.638Z,10.97
2017-12-31T07:34:18.843Z,21.97
2017-12-31T07:36:45.020Z,16.33
2017-12-31T07:39:12.127Z,10.00
2017-12-31T07:41:38.311Z,27.67
2017-12-31T07:44:05.235Z,9.53
2017-12-31T07:46:31.466Z,6.17
2017-12-31T07:48:57.646Z,15.37
2017-12-31T07:51:23.827Z,11.93
2017-12-31T07:53:50.793Z,7.57
2017-12-31T07:56:17.026Z,10.17
2017-12-31T07:58:43.240Z,10.27
2017-12-31T08:01:10.344Z,8.83
2017-12-31T08:03:36.519Z,14.20
2017-12-31T08:06:03.461Z,13.43
2017-12-31T08:08:30.407Z,10.80
2017-12-31T08:10:57.330Z,9.53
2017-12-31T08:13:25.170Z,9.50
2017-12-31T08:15:51.355Z,5.40
2017-12-31T08:18:18.283Z,7.80
2017-12-31T08:20:44.683Z,3.00
2017-12-31T08:23:10.863Z,8.93
2017-12-31T08:25:37.788Z,4.47
2017-12-31T08:28:04.736Z,3.60
2017-12-31T08:30:31.951Z,5.70
2017-12-31T08:32:58.127Z,3.70
2017-12-31T08:35:25.047Z,9.67
2017-12-31T08:37:51.572Z,4.67
2017-12-31T08:40:17.750Z,3.67
2017-12-31T08:42:43.930Z,4.80
2017-12-31T08:45:10.137Z,5.40
2017-12-31T08:47:36.378Z,3.13
2017-12-31T08:50:02.914Z,2.37
2017-12-31T08:52:29.090Z,5.80
2017-12-31T08:54:56.007Z,4.40
2017-12-31T08:57:22.228Z,4.30
2017-12-31T08:59:48.407Z,9.53
2017-12-31T09:02:14.632Z,7.83
2017-12-31T09:04:40.862Z,2.60
2017-12-31T09:07:07.332Z,11.47
2017-12-31T09:09:33.506Z,2.70
2017-12-31T09:12:00.435Z,2.57
2017-12-31T09:14:26.632Z,6.53
2017-12-31T09:16:52.810Z,5.13
2017-12-31T09:19:19.735Z,5.67
2017-12-31T09:21:45.940Z,9.53
2017-12-31T09:24:12.127Z,4.67
2017-12-31T09:26:38.331Z,2.10
2017-12-31T09:29:05.255Z,14.20
2017-12-31T09:31:31.472Z,7.00
2017-12-31T09:33:57.655Z,3.73
2017-12-31T09:36:23.835Z,5.33
2017-12-31T09:38:50.057Z,5.57
2017-12-31T09:41:16.239Z,2.40
2017-12-31T09:43:43.160Z,4.50
2017-12-31T09:46:09.366Z,3.33
2017-12-31T09:48:35.551Z,13.37
2017-12-31T09:51:02.100Z,7.27
2017-12-31T09:53:28.279Z,11.73
2017-12-31T09:55:55.207Z,13.93
2017-12-31T09:58:21.427Z,26.07
2017-12-31T10:00:47.611Z,8.57
2017-12-31T10:03:13.799Z,10.30
2017-12-31T10:05:40.027Z,13.53
2017-12-31T10:08:06.215Z,7.63
2017-12-31T10:10:32.452Z,15.87
2017-12-31T10:12:58.639Z,7.97
2017-12-31T10:15:24.854Z,3.63
2017-12-31T10:17:52.786Z,10.73
2017-12-31T10:20:18.971Z,5.63
2017-12-31T10:22:45.891Z,8.17
2017-12-31T10:25:12.107Z,8.70
2017-12-31T10:27:38.282Z,17.20
2017-12-31T10:30:04.487Z,3.73
2017-12-31T10:32:31.415Z,15.40
2017-12-31T10:34:57.620Z,5.90
2017-12-31T10:37:23.811Z,14.80
2017-12-31T10:39:50.039Z,4.77
2017-12-31T10:42:16.959Z,4.90
2017-12-31T10:44:43.876Z,2.87
2017-12-31T10:47:10.079Z,2.07
2017-12-31T10:49:36.259Z,13.33
2017-12-31T10:52:03.947Z,3.57
2017-12-31T10:54:30.871Z,7.03
2017-12-31T10:56:57.842Z,3.07
2017-12-31T10:59:24.027Z,2.70
2017-12-31T11:01:50.214Z,19.17
2017-12-31T11:04:16.468Z,10.07
2017-12-31T11:06:42.647Z,12.37
2017-12-31T11:09:09.603Z,5.73
2017-12-31T11:11:35.783Z,5.03
2017-12-31T11:14:02.040Z,7.00
2017-12-31T11:16:28.963Z,9.00
2017-12-31T11:18:55.167Z,2.13
2017-12-31T11:21:21.364Z,7.63
2017-12-31T11:23:47.599Z,3.47
2017-12-31T11:26:13.780Z,1.17
2017-12-31T11:28:39.982Z,7.33
2017-12-31T11:31:06.170Z,2.27
2017-12-31T11:33:33.135Z,7.43
2017-12-31T11:35:59.311Z,2.90
2017-12-31T11:38:25.487Z,7.37
2017-12-31T11:40:51.690Z,1.97
2017-12-31T11:43:18.611Z,6.70
2017-12-31T11:45:45.827Z,4.80
2017-12-31T11:48:12.014Z,2.13
2017-12-31T11:50:38.235Z,3.63
2017-12-31T11:53:05.183Z,4.33
2017-12-31T11:55:32.104Z,4.73
2017-12-31T11:57:58.333Z,5.47
2017-12-31T12:00:24.506Z,2.47
2017-12-31T12:02:51.422Z,8.37
2017-12-31T12:05:17.675Z,4.57
2017-12-31T12:07:44.599Z,4.10
2017-12-31T12:10:12.296Z,6.10
2017-12-31T12:12:38.474Z,4.90
2017-12-31T12:15:04.676Z,3.27
2017-12-31T12:17:30.859Z,3.50
2017-12-31T12:19:57.807Z,3.30
2017-12-31T12:22:24.769Z,7.53
2017-12-31T12:24:50.987Z,2.60
2017-12-31T12:27:17.947Z,2.53
2017-12-31T12:29:44.192Z,7.07
2017-12-31T12:32:10.406Z,3.50
2017-12-31T12:34:36.653Z,7.10
2017-12-31T12:37:02.883Z,4.80
2017-12-31T12:39:29.115Z,3.60
2017-12-31T12:41:55.295Z,5.00
2017-12-31T12:44:22.239Z,3.03
2017-12-31T12:46:49.209Z,7.53
2017-12-31T12:49:16.154Z,5.40
2017-12-31T12:51:43.116Z,3.50
2017-12-31T12:54:09.404Z,7.60
2017-12-31T12:56:37.109Z,8.20
2017-12-31T12:59:03.292Z,4.50
2017-12-31T13:01:30.239Z,1.80
2017-12-31T13:03:57.244Z,6.77
2017-12-31T13:06:23.492Z,4.43
2017-12-31T13:08:49.671Z,2.80
2017-12-31T13:11:16.661Z,4.53
2017-12-31T13:13:42.842Z,4.17
2017-12-31T13:16:09.834Z,3.10
2017-12-31T13:18:36.039Z,3.07
2017-12-31T13:21:02.248Z,5.67
2017-12-31T13:23:29.213Z,15.43
2017-12-31T13:25:55.415Z,4.93
2017-12-31T13:28:22.381Z,6.50
2017-12-31T13:30:48.619Z,7.90
2017-12-31T13:33:14.797Z,2.97
2017-12-31T13:35:41.343Z,5.70
2017-12-31T13:38:07.585Z,5.50
2017-12-31T13:40:34.507Z,7.30
2017-12-31T13:43:00.723Z,4.87
2017-12-31T13:45:26.902Z,4.10
2017-12-31T13:47:53.823Z,9.60
2017-12-31T13:50:20.027Z,3.33
2017-12-31T13:52:46.211Z,5.00
2017-12-31T13:55:12.485Z,2.43
2017-12-31T13:57:38.714Z,7.23
2017-12-31T14:00:04.919Z,2.43
2017-12-31T14:02:31.099Z,3.70
2017-12-31T14:04:58.103Z,3.47
2017-12-31T14:07:24.283Z,5.60
2017-12-31T14:09:51.297Z,2.60
2017-12-31T14:12:17.471Z,11.33
2017-12-31T14:14:44.461Z,5.33
2017-12-31T14:17:10.672Z,2.60
2017-12-31T14:19:36.879Z,3.00
2017-12-31T14:22:03.177Z,3.53
2017-12-31T14:24:30.166Z,4.20
2017-12-31T14:26:56.344Z,9.30
2017-12-31T14:29:22.600Z,7.13
2017-12-31T14:31:48.836Z,2.83
2017-12-31T14:34:15.754Z,3.50
2017-12-31T14:36:42.257Z,1.47
2017-12-31T14:39:08.481Z,5.50
2017-12-31T14:41:34.824Z,8.23
2017-12-31T14:44:01.044Z,8.20
2017-12-31T14:46:27.228Z,2.90
2017-12-31T14:48:54.187Z,1.50
2017-12-31T14:51:20.417Z,3.70
2017-12-31T14:53:46.645Z,3.40
2017-12-31T14:56:13.024Z,7.50
2017-12-31T14:58:39.212Z,2.83
2017-12-31T15:01:05.440Z,2.93
2017-12-31T15:03:31.643Z,2.80
2017-12-31T15:05:57.842Z,1.90
2017-12-31T15:08:24.043Z,1.70
2017-12-31T15:10:50.227Z,7.80
2017-12-31T15:13:17.203Z,2.10
2017-12-31T15:15:43.399Z,2.67
2017-12-31T15:18:10.332Z,3.47
2017-12-31T15:20:36.540Z,3.00
2017-12-31T15:23:02.795Z,6.37
2017-12-31T15:25:30.525Z,4.90
2017-12-31T15:27:56.703Z,1.60
2017-12-31T15:30:24.057Z,6.03
2017-12-31T15:32:51.069Z,2.80
2017-12-31T15:35:17.289Z,3.63
2017-12-31T15:37:43.524Z,4.10
2017-12-31T15:40:09.702Z,3.23
2017-12-31T15:42:36.693Z,3.07
2017-12-31T15:45:02.921Z,4.20
2017-12-31T15:47:29.401Z,1.63
2017-12-31T15:49:56.357Z,3.20
2017-12-31T15:52:23.372Z,4.20
2017-12-31T15:54:49.575Z,2.20
2017-12-31T15:57:15.755Z,3.43
2017-12-31T15:59:42.706Z,3.63
2017-12-31T16:02:09.623Z,2.67
2017-12-31T16:04:35.852Z,2.17
2017-12-31T16:07:02.039Z,4.90
2017-12-31T16:09:28.304Z,2.83
2017-12-31T16:11:54.525Z,3.00
2017-12-31T16:14:20.748Z,4.83
2017-12-31T16:16:47.277Z,6.00
2017-12-31T16:19:13.524Z,2.17
2017-12-31T16:21:39.702Z,7.30
2017-12-31T16:24:06.013Z,4.00
2017-12-31T16:26:32.940Z,3.00
2017-12-31T16:28:59.915Z,3.93
2017-12-31T16:31:26.841Z,1.90
2017-12-31T16:33:54.617Z,2.80
2017-12-31T16:36:21.582Z,6.20
2017-12-31T16:38:47.759Z,1.93
2017-12-31T16:41:13.963Z,5.87
2017-12-31T16:43:40.143Z,3.83
2017-12-31T16:46:07.100Z,4.97
2017-12-31T16:48:34.020Z,3.63
2017-12-31T16:51:00.223Z,5.60
2017-12-31T16:53:26.407Z,7.00
2017-12-31T16:55:53.363Z,2.20
2017-12-31T16:58:19.546Z,3.90
2017-12-31T17:00:45.726Z,3.20
2017-12-31T17:03:11.951Z,3.13
2017-12-31T17:05:38.134Z,2.30
2017-12-31T17:08:04.381Z,2.83
2017-12-31T17:10:30.596Z,3.27
2017-12-31T17:12:56.803Z,2.30
2017-12-31T17:15:22.983Z,1.90
2017-12-31T17:17:49.405Z,3.57
2017-12-31T17:20:16.327Z,3.07
2017-12-31T17:22:42.506Z,4.73
2017-12-31T17:25:08.707Z,6.73
2017-12-31T17:27:35.666Z,8.30
2017-12-31T17:30:02.672Z,7.70
2017-12-31T17:32:28.910Z,2.80
2017-12-31T17:34:55.115Z,3.90
2017-12-31T17:37:21.297Z,4.37
2017-12-31T17:39:47.512Z,4.17
2017-12-31T17:42:14.431Z,3.50
2017-12-31T17:44:40.648Z,4.13
2017-12-31T17:47:06.899Z,7.80
2017-12-31T17:49:33.078Z,5.97
2017-12-31T17:51:59.284Z,5.37
2017-12-31T17:54:25.512Z,3.43
2017-12-31T17:56:52.520Z,2.87
2017-12-31T17:59:18.700Z,2.90
2017-12-31T18:01:44.958Z,5.40
2017-12-31T18:04:11.182Z,2.30
2017-12-31T18:06:37.401Z,4.63
2017-12-31T18:09:03.647Z,2.40
2017-12-31T18:11:29.826Z,5.40
2017-12-31T18:13:56.770Z,7.90
2017-12-31T18:16:23.691Z,3.80
2017-12-31T18:18:49.867Z,8.47
2017-12-31T18:21:16.067Z,5.53
2017-12-31T18:23:43.011Z,6.17
2017-12-31T18:26:09.979Z,5.73
2017-12-31T18:28:36.182Z,6.50
2017-12-31T18:31:02.358Z,4.17
2017-12-31T18:33:28.882Z,7.63
2017-12-31T18:35:55.097Z,5.33
2017-12-31T18:38:22.015Z,4.07
2017-12-31T18:40:48.975Z,3.07
2017-12-31T18:43:15.946Z,9.30
2017-12-31T18:45:42.146Z,4.43
2017-12-31T18:48:08.423Z,3.80
2017-12-31T18:50:34.631Z,6.57
2017-12-31T18:53:00.862Z,4.70
2017-12-31T18:55:27.063Z,12.43
2017-12-31T18:57:54.006Z,6.30
2017-12-31T19:00:20.999Z,3.83
2017-12-31T19:02:47.198Z,7.63
2017-12-31T19:05:14.179Z,4.40
2017-12-31T19:07:40.355Z,6.07
2017-12-31T19:10:08.069Z,5.13
2017-12-31T19:12:34.397Z,5.57
2017-12-31T19:15:00.575Z,4.67
2017-12-31T19:17:26.831Z,5.47
2017-12-31T19:19:53.042Z,7.50
2017-12-31T19:22:20.063Z,4.63
2017-12-31T19:24:46.243Z,3.57
2017-12-31T19:27:12.473Z,3.80
2017-12-31T19:29:38.745Z,2.80
2017-12-31T19:32:04.927Z,6.77
2017-12-31T19:34:31.139Z,5.40
2017-12-31T19:36:58.067Z,1.93
2017-12-31T19:39:24.271Z,5.13
2017-12-31T19:41:50.498Z,5.37
2017-12-31T19:44:16.738Z,2.50
2017-12-31T19:46:42.915Z,4.00
2017-12-31T19:49:09.862Z,5.20
2017-12-31T19:51:36.782Z,4.00
2017-12-31T19:54:03.026Z,4.93
2017-12-31T19:56:37.045Z,5.47
2017-12-31T19:59:03.991Z,3.97
2017-12-31T20:01:30.972Z,6.53
2017-12-31T20:03:57.241Z,6.97
2017-12-31T20:06:23.431Z,3.43
2017-12-31T20:08:49.659Z,11.73
2017-12-31T20:11:15.918Z,4.03
2017-12-31T20:13:42.141Z,9.93
2017-12-31T20:16:08.399Z,3.33
2017-12-31T20:18:35.319Z,3.40
2017-12-31T20:21:01.569Z,5.97
2017-12-31T20:23:27.834Z,3.33
2017-12-31T20:25:54.094Z,3.37
2017-12-31T20:28:20.374Z,7.60
2017-12-31T20:30:47.287Z,3.60
2017-12-31T20:33:13.533Z,3.80
2017-12-31T20:35:40.450Z,3.30
2017-12-31T20:38:06.706Z,3.13
2017-12-31T20:40:33.664Z,4.87
2017-12-31T20:43:00.662Z,3.67
2017-12-31T20:45:26.890Z,5.63
2017-12-31T20:47:53.128Z,8.30
2017-12-31T20:50:19.363Z,5.70
2017-12-31T20:52:45.624Z,5.13
2017-12-31T20:55:12.560Z,3.90
2017-12-31T20:57:38.823Z,7.03
2017-12-31T21:00:04.999Z,11.23
2017-12-31T21:02:31.253Z,4.30
2017-12-31T21:04:58.258Z,4.37
2017-12-31T21:07:24.522Z,9.00
2017-12-31T21:09:51.493Z,5.07
2017-12-31T21:12:18.645Z,5.07
2017-12-31T21:14:45.625Z,4.60
2017-12-31T21:17:11.890Z,5.80
2017-12-31T21:19:38.146Z,5.30
2017-12-31T21:22:05.087Z,3.10
2017-12-31T21:24:32.030Z,9.40
2017-12-31T21:26:59.011Z,4.40
2017-12-31T21:29:25.271Z,5.53
2017-12-31T21:31:51.569Z,5.27
2017-12-31T21:34:18.557Z,2.53
2017-12-31T21:36:44.788Z,3.40
2017-12-31T21:39:10.970Z,4.23
2017-12-31T21:41:37.214Z,8.23
2017-12-31T21:44:03.663Z,4.43
2017-12-31T21:46:29.918Z,4.87
2017-12-31T21:48:56.107Z,5.17
2017-12-31T21:51:22.307Z,3.07
2017-12-31T21:53:48.507Z,6.50
2017-12-31T21:56:14.762Z,3.40
2017-12-31T21:58:41.730Z,2.70
2017-12-31T22:01:08.038Z,3.67
2017-12-31T22:03:34.999Z,4.20
2017-12-31T22:06:01.180Z,4.67
2017-12-31T22:08:27.391Z,3.13
2017-12-31T22:10:53.629Z,2.07
2017-12-31T22:13:19.811Z,2.23
2017-12-31T22:15:46.067Z,1.90
2017-12-31T22:18:12.298Z,4.07
2017-12-31T22:20:38.537Z,2.07
2017-12-31T22:23:04.768Z,4.63
2017-12-31T22:25:31.009Z,5.73
2017-12-31T22:27:57.187Z,5.20
2017-12-31T22:30:23.388Z,2.70
2017-12-31T22:32:50.362Z,1.83
2017-12-31T22:35:16.595Z,1.70
2017-12-31T22:37:42.833Z,1.77
2017-12-31T22:40:09.070Z,2.70
2017-12-31T22:42:35.331Z,1.47
2017-12-31T22:45:01.553Z,2.20
2017-12-31T22:47:27.782Z,2.40
2017-12-31T22:49:54.010Z,4.03
2017-12-31T22:52:20.286Z,1.53
2017-12-31T22:54:47.244Z,3.60
2017-12-31T22:57:13.457Z,9.43
2017-12-31T22:59:40.399Z,2.10
2017-12-31T23:02:07.371Z,2.10
2017-12-31T23:04:33.624Z,4.30
2017-12-31T23:06:59.853Z,1.73
2017-12-31T23:09:26.105Z,3.00
2017-12-31T23:11:52.307Z,2.43
2017-12-31T23:14:18.511Z,1.33
2017-12-31T23:16:44.691Z,2.10
2017-12-31T23:19:10.941Z,2.97
2017-12-31T23:21:37.905Z,2.27
2017-12-31T23:24:04.832Z,2.90
2017-12-31T23:26:31.821Z,2.57
2017-12-31T23:28:58.003Z,4.10
2017-12-31T23:31:24.203Z,9.47
2017-12-31T23:33:50.378Z,6.93
2017-12-31T23:36:17.319Z,12.37
2017-12-31T23:38:43.586Z,13.37
2017-12-31T23:41:09.866Z,14.73
2017-12-31T23:43:36.811Z,12.20
2017-12-31T23:46:03.773Z,12.37
2017-12-31T23:48:30.769Z,15.77
2017-12-31T23:50:56.952Z,10.87
2017-12-31T23:53:23.895Z,8.60
2017-12-31T23:55:50.810Z,7.67
2017-12-31T23:58:17.061Z,8.53
